Time;durP1;ratioP1;P1;durP2;ratioP2;P2;SDS_P1;SDS_P2;PMS_P1;PMS_P2;Temp;Humidity;BMP_temperature;BMP_pressure;BME280_temperature;BME280_humidity;BME280_pressure;Samples;Min_cycle;Max_cycle;Signal;HPM_P1;HPM_P2
2022/04/28 00:00:00;;;;;;;18.35;5.97;;;;;;;;;;5033096;28;20046;-65
2022/04/28 00:02:26;;;;;;;12.95;6.00;;;;;;;;;;5032367;28;20046;-65
2022/04/28 00:04:52;;;;;;;13.07;5.97;;;;;;;;;;5032957;28;20465;-65
2022/04/28 00:07:18;;;;;;;14.45;6.07;;;;;;;;;;5032912;28;20508;-65
2022/04/28 00:09:44;;;;;;;16.13;6.30;;;;;;;;;;5032322;28;20037;-65
2022/04/28 00:12:12;;;;;;;12.05;5.75;;;;;;;;;;5032694;28;20037;-65
2022/04/28 00:14:38;;;;;;;13.98;6.45;;;;;;;;;;5032810;28;20041;-65
2022/04/28 00:17:05;;;;;;;11.10;5.47;;;;;;;;;;5032030;28;20052;-65
2022/04/28 00:19:31;;;;;;;11.20;5.80;;;;;;;;;;5032661;28;20110;-65
2022/04/28 00:21:57;;;;;;;11.13;5.38;;;;;;;;;;5032741;28;20504;-65
2022/04/28 00:24:24;;;;;;;17.20;6.57;;;;;;;;;;5032380;28;20081;-65
2022/04/28 00:26:50;;;;;;;14.00;6.10;;;;;;;;;;5032544;28;20037;-65
2022/04/28 00:29:16;;;;;;;8.80;5.88;;;;;;;;;;5032643;28;20041;-65
2022/04/28 00:31:42;;;;;;;14.52;5.63;;;;;;;;;;5031875;28;20045;-65
2022/04/28 00:34:08;;;;;;;13.10;5.88;;;;;;;;;;5032543;28;20040;-65
2022/04/28 00:36:35;;;;;;;10.10;5.32;;;;;;;;;;5032566;28;20045;-65
2022/04/28 00:39:01;;;;;;;11.45;5.45;;;;;;;;;;5031830;28;20203;-65
2022/04/28 00:41:27;;;;;;;14.63;5.57;;;;;;;;;;5032540;28;20056;-65
2022/04/28 00:43:54;;;;;;;11.73;5.18;;;;;;;;;;5032271;28;20045;-65
2022/04/28 00:46:21;;;;;;;18.02;6.10;;;;;;;;;;5031971;28;20100;-65
2022/04/28 00:51:37;;;;;;;11.65;5.82;;;;;;;;;;5032590;28;20041;-65
2022/04/28 00:54:04;;;;;;;13.32;6.20;;;;;;;;;;5031703;28;20471;-65
2022/04/28 00:56:30;;;;;;;16.33;6.10;;;;;;;;;;5032482;28;20513;-65
2022/04/28 00:59:00;;;;;;;9.90;5.72;;;;;;;;;;5032250;28;20037;-65
2022/04/28 01:01:26;;;;;;;13.32;5.68;;;;;;;;;;5031747;28;20076;-65
2022/04/28 01:03:52;;;;;;;17.52;5.43;;;;;;;;;;5032272;28;20041;-65
2022/04/28 01:06:19;;;;;;;15.07;5.90;;;;;;;;;;5031821;28;20064;-65
2022/04/28 01:08:46;;;;;;;16.42;5.75;;;;;;;;;;5031690;28;20495;-65
2022/04/28 01:11:12;;;;;;;16.75;6.05;;;;;;;;;;5032128;28;20045;-65
2022/04/28 01:13:38;;;;;;;12.38;5.55;;;;;;;;;;5032247;28;20030;-65
2022/04/28 01:16:04;;;;;;;11.35;5.75;;;;;;;;;;5031631;28;20048;-65
2022/04/28 01:18:31;;;;;;;10.90;5.53;;;;;;;;;;5031536;28;20042;-65
2022/04/28 01:21:01;;;;;;;12.80;5.93;;;;;;;;;;5032067;28;20045;-65
2022/04/28 01:23:28;;;;;;;10.45;5.50;;;;;;;;;;5031581;28;20116;-65
2022/04/28 01:25:54;;;;;;;10.40;5.75;;;;;;;;;;5031915;28;20033;-65
2022/04/28 01:28:20;;;;;;;14.50;6.32;;;;;;;;;;5032482;28;20690;-65
2022/04/28 01:30:47;;;;;;;18.75;6.15;;;;;;;;;;5035356;28;20045;-65
2022/04/28 01:33:13;;;;;;;11.98;6.13;;;;;;;;;;5035847;28;20132;-65
2022/04/28 01:35:39;;;;;;;11.52;6.30;;;;;;;;;;5035824;28;20048;-65
2022/04/28 01:38:05;;;;;;;11.52;5.63;;;;;;;;;;5035362;28;20045;-65
2022/04/28 01:40:31;;;;;;;12.38;5.82;;;;;;;;;;5035987;28;20419;-65
2022/04/28 01:42:57;;;;;;;12.70;5.88;;;;;;;;;;5035911;28;20446;-65
2022/04/28 01:45:23;;;;;;;13.50;6.35;;;;;;;;;;5035022;28;20041;-65
2022/04/28 01:47:49;;;;;;;14.23;6.70;;;;;;;;;;5035194;28;20080;-65
2022/04/28 01:50:15;;;;;;;13.75;6.32;;;;;;;;;;5035635;28;20049;-65
2022/04/28 01:55:26;;;;;;;15.23;6.50;;;;;;;;;;5035805;28;20061;-65
2022/04/28 01:57:52;;;;;;;16.83;6.80;;;;;;;;;;5035547;28;20048;-65
2022/04/28 02:00:18;;;;;;;12.82;7.57;;;;;;;;;;5035099;28;20049;-65
2022/04/28 02:02:45;;;;;;;13.55;6.63;;;;;;;;;;5035524;28;20392;-65
2022/04/28 02:05:11;;;;;;;10.90;5.78;;;;;;;;;;5035258;28;20122;-65
2022/04/28 02:07:37;;;;;;;12.48;6.10;;;;;;;;;;5034216;28;20107;-65
2022/04/28 02:10:05;;;;;;;11.48;5.68;;;;;;;;;;5035178;28;20049;-65
2022/04/28 02:12:31;;;;;;;10.52;5.90;;;;;;;;;;5050684;28;20045;-65
2022/04/28 02:14:57;;;;;;;14.70;6.43;;;;;;;;;;5033670;28;20041;-65
2022/04/28 02:17:24;;;;;;;17.27;6.18;;;;;;;;;;5034530;28;20126;-65
2022/04/28 02:19:51;;;;;;;12.40;5.63;;;;;;;;;;5035278;28;20481;-65
2022/04/28 02:22:17;;;;;;;10.70;5.38;;;;;;;;;;5034568;28;20435;-65
2022/04/28 02:24:43;;;;;;;14.25;5.63;;;;;;;;;;5033602;28;20535;-65
2022/04/28 02:27:09;;;;;;;14.40;5.72;;;;;;;;;;5034699;28;20048;-65
2022/04/28 02:29:37;;;;;;;14.65;5.82;;;;;;;;;;5034147;28;20770;-65
2022/04/28 02:32:03;;;;;;;12.85;6.25;;;;;;;;;;5034845;28;20417;-65
2022/04/28 02:34:29;;;;;;;16.55;6.05;;;;;;;;;;5034779;28;20428;-65
2022/04/28 02:36:56;;;;;;;11.73;5.63;;;;;;;;;;5033977;28;20080;-65
2022/04/28 02:39:22;;;;;;;15.63;6.00;;;;;;;;;;5034335;28;20501;-65
2022/04/28 02:41:48;;;;;;;12.65;5.82;;;;;;;;;;5034786;28;20583;-65
2022/04/28 02:44:14;;;;;;;17.20;5.75;;;;;;;;;;5033865;28;20045;-65
2022/04/28 02:46:42;;;;;;;12.57;5.82;;;;;;;;;;5034620;28;20048;-65
2022/04/28 02:49:09;;;;;;;10.70;5.88;;;;;;;;;;5034892;28;20041;-65
2022/04/28 02:51:35;;;;;;;10.02;5.38;;;;;;;;;;5034041;28;20121;-65
2022/04/28 02:54:01;;;;;;;12.95;5.97;;;;;;;;;;5034682;28;20547;-65
2022/04/28 02:56:30;;;;;;;13.82;6.80;;;;;;;;;;5034698;28;20034;-65
2022/04/28 02:58:55;;;;;;;15.40;6.00;;;;;;;;;;5033875;28;20033;-65
2022/04/28 03:01:22;;;;;;;16.02;6.05;;;;;;;;;;5034518;28;20555;-65
2022/04/28 03:03:49;;;;;;;14.32;5.65;;;;;;;;;;5034135;28;20097;-65
2022/04/28 03:11:45;;;;;;;16.30;6.28;;;;;;;;;;5034304;28;20033;-65
2022/04/28 03:14:12;;;;;;;12.98;5.78;;;;;;;;;;5033172;28;20049;-65
2022/04/28 03:16:38;;;;;;;9.32;5.18;;;;;;;;;;5033641;28;20132;-65
2022/04/28 03:19:05;;;;;;;13.15;6.78;;;;;;;;;;5033522;28;20053;-65
2022/04/28 03:21:32;;;;;;;13.90;5.85;;;;;;;;;;5033172;28;20034;-65
2022/04/28 03:23:58;;;;;;;12.13;5.57;;;;;;;;;;5033897;28;20037;-65
2022/04/28 03:26:24;;;;;;;10.60;5.65;;;;;;;;;;5033356;28;20045;-65
2022/04/28 03:28:50;;;;;;;8.40;5.32;;;;;;;;;;5033246;28;20403;-65
2022/04/28 03:31:17;;;;;;;9.02;5.20;;;;;;;;;;5033803;28;20049;-65
2022/04/28 03:33:43;;;;;;;14.55;6.60;;;;;;;;;;5033581;28;20099;-65
2022/04/28 03:38:54;;;;;;;11.75;5.20;;;;;;;;;;5033706;28;20041;-65
2022/04/28 03:41:20;;;;;;;9.90;5.18;;;;;;;;;;5033690;28;20063;-65
2022/04/28 03:43:46;;;;;;;8.35;4.72;;;;;;;;;;5032690;28;20054;-65
2022/04/28 03:46:15;;;;;;;17.27;5.40;;;;;;;;;;5033606;28;20048;-65
2022/04/28 03:48:41;;;;;;;10.02;5.13;;;;;;;;;;5033625;28;20049;-65
2022/04/28 03:51:07;;;;;;;11.48;4.60;;;;;;;;;;5032337;28;20380;-65
2022/04/28 03:53:33;;;;;;;11.35;4.90;;;;;;;;;;5033368;28;20037;-65
2022/04/28 03:55:59;;;;;;;11.90;5.18;;;;;;;;;;5033054;28;20042;-65
2022/04/28 03:58:26;;;;;;;12.15;4.15;;;;;;;;;;5031228;28;20050;-65
2022/04/28 04:00:53;;;;;;;9.10;5.00;;;;;;;;;;5033399;28;20626;-65
2022/04/28 04:03:20;;;;;;;12.75;4.88;;;;;;;;;;5033284;28;20132;-65
2022/04/28 04:05:46;;;;;;;12.50;4.95;;;;;;;;;;5032078;28;20080;-65
2022/04/28 04:08:13;;;;;;;12.45;4.55;;;;;;;;;;5032723;28;20077;-65
2022/04/28 04:10:39;;;;;;;14.00;4.68;;;;;;;;;;5033093;28;20041;-65
2022/04/28 04:13:05;;;;;;;11.63;5.40;;;;;;;;;;5032199;28;20056;-65
2022/04/28 04:15:32;;;;;;;12.88;5.30;;;;;;;;;;5032854;28;20041;-65
2022/04/28 04:17:58;;;;;;;8.18;4.95;;;;;;;;;;5031378;28;20041;-65
2022/04/28 04:20:25;;;;;;;10.45;5.10;;;;;;;;;;5032105;28;20124;-65
2022/04/28 04:22:52;;;;;;;11.88;4.70;;;;;;;;;;5032767;28;20045;-65
2022/04/28 04:25:18;;;;;;;10.32;5.03;;;;;;;;;;5030212;28;20073;-65
2022/04/28 04:27:45;;;;;;;11.73;5.45;;;;;;;;;;5030412;28;20042;-65
2022/04/28 04:32:56;;;;;;;11.25;5.07;;;;;;;;;;5031184;28;20049;-65
2022/04/28 04:35:23;;;;;;;8.63;4.63;;;;;;;;;;5030415;28;20042;-65
2022/04/28 04:37:51;;;;;;;8.68;4.35;;;;;;;;;;5031200;28;20480;-64
2022/04/28 04:40:17;;;;;;;11.35;5.13;;;;;;;;;;5031557;28;20545;-64
2022/04/28 04:42:43;;;;;;;11.50;4.97;;;;;;;;;;5030511;28;20049;-64
2022/04/28 04:45:09;;;;;;;11.35;4.68;;;;;;;;;;5031085;28;20451;-64
2022/04/28 04:47:36;;;;;;;13.38;5.43;;;;;;;;;;5031353;28;20048;-64
2022/04/28 04:50:02;;;;;;;13.85;5.90;;;;;;;;;;5029015;28;20459;-64
2022/04/28 04:52:28;;;;;;;12.23;4.75;;;;;;;;;;5029703;28;20042;-64
2022/04/28 04:54:54;;;;;;;10.57;5.00;;;;;;;;;;5031063;28;20044;-64
2022/04/28 04:57:20;;;;;;;10.93;4.90;;;;;;;;;;5030561;28;20427;-64
2022/04/28 04:59:47;;;;;;;13.73;4.88;;;;;;;;;;5031144;28;20072;-64
2022/04/28 05:02:13;;;;;;;12.05;5.28;;;;;;;;;;5030763;28;20546;-64
2022/04/28 05:04:39;;;;;;;9.43;5.15;;;;;;;;;;5029210;28;20049;-64
2022/04/28 05:07:05;;;;;;;12.50;4.93;;;;;;;;;;5030840;28;20076;-64
2022/04/28 05:09:31;;;;;;;8.23;5.47;;;;;;;;;;5030444;28;20134;-64
2022/04/28 05:11:57;;;;;;;13.15;5.43;;;;;;;;;;5031019;28;20045;-64
2022/04/28 05:14:23;;;;;;;13.23;5.80;;;;;;;;;;5028974;28;20112;-64
2022/04/28 05:16:49;;;;;;;11.25;5.10;;;;;;;;;;5030805;28;20049;-64
2022/04/28 05:19:15;;;;;;;14.65;5.18;;;;;;;;;;5029122;28;20542;-64
2022/04/28 05:21:41;;;;;;;8.60;4.90;;;;;;;;;;5029809;28;20045;-64
2022/04/28 05:24:07;;;;;;;15.05;5.25;;;;;;;;;;5030691;28;20048;-64
2022/04/28 05:26:33;;;;;;;11.52;5.00;;;;;;;;;;5030412;28;20048;-64
2022/04/28 05:28:59;;;;;;;9.38;4.97;;;;;;;;;;5029888;28;20541;-64
2022/04/28 05:31:25;;;;;;;16.05;4.97;;;;;;;;;;5030410;28;20041;-64
2022/04/28 05:33:51;;;;;;;12.65;4.43;;;;;;;;;;5029216;28;20052;-64
2022/04/28 05:36:17;;;;;;;13.45;5.10;;;;;;;;;;5029946;28;20084;-64
2022/04/28 05:38:43;;;;;;;32.65;13.43;;;;;;;;;;5030437;28;20403;-64
2022/04/28 05:41:10;;;;;;;12.38;5.68;;;;;;;;;;5030570;28;20041;-64
2022/04/28 05:46:21;;;;;;;10.73;4.97;;;;;;;;;;5030371;28;20124;-64
2022/04/28 05:48:47;;;;;;;9.32;4.82;;;;;;;;;;5030506;28;20051;-64
2022/04/28 05:51:13;;;;;;;12.93;5.18;;;;;;;;;;5029815;28;20487;-64
2022/04/28 05:53:40;;;;;;;12.52;4.75;;;;;;;;;;5030409;28;20037;-64
2022/04/28 05:56:06;;;;;;;11.25;5.13;;;;;;;;;;5030341;28;20037;-64
2022/04/28 05:58:32;;;;;;;12.93;4.78;;;;;;;;;;5029715;28;20103;-64
2022/04/28 06:00:59;;;;;;;10.40;5.35;;;;;;;;;;5030382;28;20377;-64
2022/04/28 06:03:26;;;;;;;9.40;5.00;;;;;;;;;;5029296;28;20044;-64
2022/04/28 06:05:52;;;;;;;10.05;5.10;;;;;;;;;;5029065;28;20057;-64
2022/04/28 06:08:18;;;;;;;11.23;5.00;;;;;;;;;;5029987;28;20048;-64
2022/04/28 06:10:44;;;;;;;9.15;4.60;;;;;;;;;;5028920;28;20045;-64
2022/04/28 06:13:10;;;;;;;13.82;5.10;;;;;;;;;;5029600;28;20403;-64
2022/04/28 06:15:37;;;;;;;14.32;5.78;;;;;;;;;;5032941;28;20045;-64
2022/04/28 06:18:03;;;;;;;13.88;6.10;;;;;;;;;;5033687;28;20048;-64
2022/04/28 06:20:29;;;;;;;11.32;5.30;;;;;;;;;;5033315;28;20535;-64
2022/04/28 06:22:55;;;;;;;10.15;5.38;;;;;;;;;;5033869;28;20033;-64
2022/04/28 06:25:23;;;;;;;11.13;5.28;;;;;;;;;;5034410;28;20041;-64
2022/04/28 06:27:49;;;;;;;12.68;5.82;;;;;;;;;;5033445;28;20049;-64
2022/04/28 06:30:15;;;;;;;16.55;5.43;;;;;;;;;;5034946;28;20469;-64
2022/04/28 06:32:41;;;;;;;11.32;5.00;;;;;;;;;;5034535;28;20037;-64
2022/04/28 06:35:08;;;;;;;10.18;4.68;;;;;;;;;;5034983;28;20490;-64
2022/04/28 06:37:34;;;;;;;21.77;5.22;;;;;;;;;;5035968;28;20042;-64
2022/04/28 06:40:00;;;;;;;15.02;5.72;;;;;;;;;;5035930;28;20117;-63
2022/04/28 06:42:26;;;;;;;12.00;4.82;;;;;;;;;;5025180;28;20049;-63
2022/04/28 06:44:53;;;;;;;12.75;4.95;;;;;;;;;;5032495;28;20037;-63
2022/04/28 06:47:19;;;;;;;14.60;5.55;;;;;;;;;;5036065;28;20391;-64
2022/04/28 06:49:45;;;;;;;9.00;4.40;;;;;;;;;;5034440;28;20061;-63
2022/04/28 06:52:11;;;;;;;7.97;4.68;;;;;;;;;;5034431;28;20049;-64
2022/04/28 06:54:38;;;;;;;12.25;5.10;;;;;;;;;;5032975;28;20171;-65
2022/04/28 06:57:04;;;;;;;16.17;5.30;;;;;;;;;;5033137;28;20601;-65
2022/04/28 06:59:30;;;;;;;9.80;4.70;;;;;;;;;;5035023;28;20045;-65
2022/04/28 07:01:56;;;;;;;15.05;4.80;;;;;;;;;;5034399;28;20046;-65
2022/04/28 07:04:24;;;;;;;16.27;4.82;;;;;;;;;;5033321;28;20049;-65
2022/04/28 07:06:51;;;;;;;10.88;4.05;;;;;;;;;;5033698;28;20053;-66
2022/04/28 07:09:17;;;;;;;13.48;4.47;;;;;;;;;;5033935;28;20095;-65
2022/04/28 07:11:43;;;;;;;10.70;3.88;;;;;;;;;;5032089;28;20033;-65
2022/04/28 07:14:09;;;;;;;14.48;3.90;;;;;;;;;;5032872;28;20073;-65
2022/04/28 07:16:35;;;;;;;10.63;3.75;;;;;;;;;;5032942;28;20060;-66
2022/04/28 07:19:03;;;;;;;10.93;3.95;;;;;;;;;;5034218;28;20547;-63
2022/04/28 07:21:30;;;;;;;16.67;4.30;;;;;;;;;;5035942;28;20033;-64
2022/04/28 07:23:56;;;;;;;10.38;3.65;;;;;;;;;;5035664;28;20041;-63
2022/04/28 07:26:22;;;;;;;8.45;3.60;;;;;;;;;;5032542;28;20049;-63
2022/04/28 07:28:48;;;;;;;13.48;4.10;;;;;;;;;;5034789;28;20408;-64
2022/04/28 07:31:14;;;;;;;11.90;3.88;;;;;;;;;;5035116;28;20034;-63
2022/04/28 07:33:40;;;;;;;9.50;3.72;;;;;;;;;;5035120;28;20456;-64
2022/04/28 07:36:07;;;;;;;11.23;3.90;;;;;;;;;;5033965;28;20521;-64
2022/04/28 07:38:33;;;;;;;13.55;3.97;;;;;;;;;;5033627;28;20120;-64
2022/04/28 07:41:01;;;;;;;12.07;3.55;;;;;;;;;;5031645;28;20083;-65
2022/04/28 07:43:27;;;;;;;9.98;3.40;;;;;;;;;;5027729;28;20060;-65
2022/04/28 07:45:53;;;;;;;12.45;3.78;;;;;;;;;;5030717;28;20098;-64
2022/04/28 07:48:20;;;;;;;10.18;3.15;;;;;;;;;;5032820;28;20814;-64
2022/04/28 07:50:47;;;;;;;9.32;2.90;;;;;;;;;;5034624;28;20037;-63
2022/04/28 07:53:15;;;;;;;8.43;2.60;;;;;;;;;;5033877;28;20041;-63
2022/04/28 07:55:42;;;;;;;13.77;2.95;;;;;;;;;;5012737;28;20398;-64
2022/04/28 07:58:08;;;;;;;9.23;2.92;;;;;;;;;;5014021;28;20050;-63
2022/04/28 08:00:35;;;;;;;9.13;2.95;;;;;;;;;;5015326;28;20049;-63
2022/04/28 08:03:01;;;;;;;8.82;2.55;;;;;;;;;;5011997;28;20046;-63
2022/04/28 08:05:27;;;;;;;9.45;2.60;;;;;;;;;;5010992;28;20050;-63
2022/04/28 08:07:54;;;;;;;7.22;2.33;;;;;;;;;;5011348;28;20048;-65
2022/04/28 08:10:20;;;;;;;6.88;2.55;;;;;;;;;;5011740;28;20132;-65
2022/04/28 08:12:46;;;;;;;10.20;2.75;;;;;;;;;;5010625;28;20125;-64
2022/04/28 08:15:12;;;;;;;12.38;3.15;;;;;;;;;;5012586;28;20046;-65
2022/04/28 08:17:39;;;;;;;8.13;2.47;;;;;;;;;;5011180;28;20044;-64
2022/04/28 08:20:05;;;;;;;11.93;2.92;;;;;;;;;;5012189;28;20084;-65
2022/04/28 08:22:31;;;;;;;8.05;2.40;;;;;;;;;;5014804;28;20049;-63
2022/04/28 08:24:58;;;;;;;10.75;2.92;;;;;;;;;;5015780;28;20045;-63
2022/04/28 08:27:25;;;;;;;11.27;2.60;;;;;;;;;;5015458;28;20064;-64
2022/04/28 08:29:52;;;;;;;6.18;2.80;;;;;;;;;;5012991;28;20041;-64
2022/04/28 08:32:18;;;;;;;8.52;2.50;;;;;;;;;;5001163;28;20045;-63
2022/04/28 08:34:44;;;;;;;6.90;2.67;;;;;;;;;;5015100;28;20053;-64
2022/04/28 08:37:10;;;;;;;13.80;2.97;;;;;;;;;;5012794;28;20046;-62
2022/04/28 08:39:36;;;;;;;7.00;2.22;;;;;;;;;;5013118;28;20045;-64
2022/04/28 08:42:02;;;;;;;11.15;2.47;;;;;;;;;;5012873;28;20048;-64
2022/04/28 08:44:29;;;;;;;9.20;3.42;;;;;;;;;;5012298;28;20064;-64
2022/04/28 08:46:56;;;;;;;6.82;2.10;;;;;;;;;;4998492;28;20825;-64
2022/04/28 08:49:25;;;;;;;7.80;2.15;;;;;;;;;;5014458;28;20040;-63
2022/04/28 08:51:54;;;;;;;10.10;2.65;;;;;;;;;;5013079;28;20530;-64
2022/04/28 08:54:21;;;;;;;6.90;2.05;;;;;;;;;;5005968;28;20112;-63
2022/04/28 08:56:47;;;;;;;8.55;2.30;;;;;;;;;;5012875;28;20507;-64
2022/04/28 08:59:14;;;;;;;6.97;2.38;;;;;;;;;;5012099;28;20045;-63
2022/04/28 09:01:41;;;;;;;8.07;2.22;;;;;;;;;;5010282;28;20121;-62
2022/04/28 09:04:10;;;;;;;4.22;2.17;;;;;;;;;;5011701;28;20048;-64
2022/04/28 09:06:36;;;;;;;10.43;2.95;;;;;;;;;;5011073;28;20064;-64
2022/04/28 09:09:04;;;;;;;5.68;2.10;;;;;;;;;;5009909;28;20053;-64
2022/04/28 09:11:32;;;;;;;6.65;2.50;;;;;;;;;;5008987;28;20049;-63
2022/04/28 09:14:11;;;;;;;7.47;2.65;;;;;;;;;;5025718;28;20053;-63
2022/04/28 09:16:37;;;;;;;6.90;2.00;;;;;;;;;;5013071;28;20052;-63
2022/04/28 09:19:03;;;;;;;5.35;2.00;;;;;;;;;;5013529;28;20037;-63
2022/04/28 09:21:32;;;;;;;6.10;2.05;;;;;;;;;;5014785;28;20390;-63
2022/04/28 09:23:58;;;;;;;5.85;2.10;;;;;;;;;;5013889;28;20053;-65
2022/04/28 09:26:24;;;;;;;7.15;2.47;;;;;;;;;;5010747;28;20046;-63
2022/04/28 09:28:57;;;;;;;7.43;2.50;;;;;;;;;;5011886;28;20100;-65
2022/04/28 09:31:23;;;;;;;3.58;1.77;;;;;;;;;;5011253;28;20870;-63
2022/04/28 09:33:50;;;;;;;4.35;1.92;;;;;;;;;;5011905;28;20041;-62
2022/04/28 09:36:16;;;;;;;6.57;1.80;;;;;;;;;;5010455;28;20049;-65
2022/04/28 09:38:42;;;;;;;7.40;2.13;;;;;;;;;;5011106;28;20136;-62
2022/04/28 09:43:57;;;;;;;7.15;2.38;;;;;;;;;;5010340;28;20083;-64
2022/04/28 09:46:23;;;;;;;6.38;2.00;;;;;;;;;;5009913;28;20045;-63
2022/04/28 09:48:51;;;;;;;6.78;2.05;;;;;;;;;;5010172;28;20034;-63
2022/04/28 09:51:25;;;;;;;7.60;2.22;;;;;;;;;;5012896;28;20209;-64
2022/04/28 09:53:52;;;;;;;6.25;2.08;;;;;;;;;;5014057;28;20049;-62
2022/04/28 09:56:24;;;;;;;5.85;2.17;;;;;;;;;;5014643;28;20046;-62
2022/04/28 09:58:51;;;;;;;6.25;2.08;;;;;;;;;;5014571;28;20500;-64
2022/04/28 10:01:17;;;;;;;6.45;2.05;;;;;;;;;;5013691;28;20044;-64
2022/04/28 10:03:43;;;;;;;7.65;2.38;;;;;;;;;;5013500;28;20041;-64
2022/04/28 10:06:10;;;;;;;7.57;2.40;;;;;;;;;;5013331;28;20056;-64
2022/04/28 10:08:36;;;;;;;7.75;2.28;;;;;;;;;;5012947;28;20056;-64
2022/04/28 10:11:05;;;;;;;7.32;2.00;;;;;;;;;;5014348;28;20034;-62
2022/04/28 10:13:32;;;;;;;7.90;2.53;;;;;;;;;;5004594;28;20392;-61
2022/04/28 10:16:12;;;;;;;10.57;2.38;;;;;;;;;;5009785;28;20109;-63
2022/04/28 10:18:41;;;;;;;9.45;2.78;;;;;;;;;;5004436;28;20143;-62
2022/04/28 10:21:11;;;;;;;6.63;2.80;;;;;;;;;;5012660;28;20052;-62
2022/04/28 10:32:43;;;;;;;7.97;2.42;;;;;;;;;;5010145;28;20046;-64
2022/04/28 10:35:10;;;;;;;7.43;2.33;;;;;;;;;;5004845;28;20088;-64
2022/04/28 10:37:37;;;;;;;9.35;2.80;;;;;;;;;;5010504;28;20049;-65
2022/04/28 10:40:04;;;;;;;8.43;2.63;;;;;;;;;;5013587;28;20050;-65
2022/04/28 10:42:30;;;;;;;7.07;2.38;;;;;;;;;;5013638;28;20120;-65
2022/04/28 10:45:04;;;;;;;8.50;2.60;;;;;;;;;;5013706;28;20129;-65
2022/04/28 10:47:31;;;;;;;6.68;2.20;;;;;;;;;;5013258;28;20133;-65
2022/04/28 10:49:57;;;;;;;7.00;2.28;;;;;;;;;;5013737;28;20046;-65
2022/04/28 10:52:25;;;;;;;7.35;2.58;;;;;;;;;;5011724;28;20041;-65
2022/04/28 10:54:55;;;;;;;8.70;2.28;;;;;;;;;;5012520;28;20048;-65
2022/04/28 10:57:31;;;;;;;12.30;2.80;;;;;;;;;;5012505;28;20129;-65
2022/04/28 10:59:58;;;;;;;4.82;2.60;;;;;;;;;;5012705;28;20523;-65
2022/04/28 11:02:24;;;;;;;4.20;2.38;;;;;;;;;;5013029;28;20034;-65
2022/04/28 11:04:55;;;;;;;11.75;2.95;;;;;;;;;;5013453;28;20052;-65
2022/04/28 11:07:25;;;;;;;9.00;2.95;;;;;;;;;;5013253;28;20559;-65
2022/04/28 11:09:57;;;;;;;9.80;3.25;;;;;;;;;;4996335;28;20121;-65
2022/04/28 11:12:23;;;;;;;;;;;;;;;;;;5006406;28;20038;-65
2022/04/28 11:14:59;;;;;;;9.63;3.08;;;;;;;;;;5011966;28;19940;-65
2022/04/28 11:17:26;;;;;;;8.13;3.30;;;;;;;;;;5011679;28;20389;-63
2022/04/28 11:19:54;;;;;;;5.75;3.67;;;;;;;;;;5012208;28;20049;-63
2022/04/28 11:22:20;;;;;;;8.75;3.85;;;;;;;;;;5012759;28;20073;-63
2022/04/28 11:24:47;;;;;;;11.80;4.05;;;;;;;;;;5013727;28;20076;-63
2022/04/28 11:27:19;;;;;;;14.30;3.50;;;;;;;;;;5011304;28;20077;-63
2022/04/28 11:29:46;;;;;;;12.15;3.70;;;;;;;;;;5012518;28;20042;-65
2022/04/28 11:32:13;;;;;;;18.88;3.78;;;;;;;;;;5012376;28;20042;-64
2022/04/28 11:34:43;;;;;;;8.68;3.42;;;;;;;;;;5012810;28;20038;-65
2022/04/28 11:37:17;;;;;;;10.75;4.05;;;;;;;;;;5011790;28;20050;-66
2022/04/28 11:39:44;;;;;;;11.57;4.45;;;;;;;;;;5011596;28;20046;-64
2022/04/28 11:42:12;;;;;;;10.55;4.05;;;;;;;;;;5011414;28;20053;-64
2022/04/28 11:44:51;;;;;;;9.13;3.55;;;;;;;;;;5011624;28;20056;-64
2022/04/28 11:47:17;;;;;;;10.50;4.00;;;;;;;;;;5011293;28;20054;-64
2022/04/28 11:49:43;;;;;;;8.07;3.90;;;;;;;;;;5011965;28;20045;-63
2022/04/28 11:52:25;;;;;;;8.65;3.85;;;;;;;;;;5007162;28;20691;-67
2022/04/28 11:55:08;;;;;;;8.15;3.58;;;;;;;;;;5010953;28;20096;-64
2022/04/28 11:57:39;;;;;;;10.35;3.85;;;;;;;;;;5002415;28;20048;-64
2022/04/28 12:00:09;;;;;;;10.15;4.00;;;;;;;;;;5010039;28;20049;-65
2022/04/28 12:02:38;;;;;;;10.40;3.70;;;;;;;;;;5008438;28;20092;-67
2022/04/28 12:05:06;;;;;;;11.68;3.75;;;;;;;;;;5011442;28;20061;-64
2022/04/28 12:07:34;;;;;;;11.02;3.70;;;;;;;;;;5010012;28;20631;-64
2022/04/28 12:15:30;;;;;;;10.52;3.47;;;;;;;;;;5011596;28;20046;-63
2022/04/28 12:21:01;;;;;;;8.18;3.72;;;;;;;;;;5009691;28;20046;-64
2022/04/28 12:23:50;;;;;;;12.57;4.13;;;;;;;;;;5005326;28;20105;-64
2022/04/28 12:26:17;;;;;;;10.40;3.40;;;;;;;;;;5009312;28;20050;-64
2022/04/28 12:28:44;;;;;;;8.95;2.80;;;;;;;;;;5008383;28;20045;-63
2022/04/28 12:31:11;;;;;;;11.40;3.22;;;;;;;;;;5009615;28;20049;-61
2022/04/28 12:33:38;;;;;;;9.60;3.20;;;;;;;;;;5008357;28;20045;-61
2022/04/28 12:36:05;;;;;;;8.65;3.35;;;;;;;;;;5006200;28;20072;-62
2022/04/28 12:38:35;;;;;;;10.38;3.67;;;;;;;;;;5009454;28;20084;-63
2022/04/28 12:41:18;;;;;;;8.20;3.08;;;;;;;;;;5007279;28;20410;-63
2022/04/28 12:43:49;;;;;;;6.93;2.92;;;;;;;;;;5004913;28;20049;-63
2022/04/28 12:46:15;;;;;;;15.05;3.65;;;;;;;;;;5006958;28;20120;-64
2022/04/28 12:48:41;;;;;;;8.90;2.75;;;;;;;;;;5009832;28;20492;-63
2022/04/28 12:51:18;;;;;;;11.93;3.20;;;;;;;;;;5009810;28;20069;-64
2022/04/28 12:53:45;;;;;;;12.75;2.75;;;;;;;;;;5008560;28;20708;-63
2022/04/28 12:56:13;;;;;;;9.60;2.88;;;;;;;;;;5010530;28;20045;-64
2022/04/28 12:58:43;;;;;;;6.28;2.65;;;;;;;;;;5006922;28;20149;-64
2022/04/28 13:01:19;;;;;;;8.75;3.10;;;;;;;;;;5004544;28;20111;-63
2022/04/28 13:03:57;;;;;;;10.45;3.38;;;;;;;;;;5005569;28;20100;-64
2022/04/28 13:06:24;;;;;;;8.45;2.88;;;;;;;;;;5009193;28;20112;-65
2022/04/28 13:08:51;;;;;;;9.60;2.70;;;;;;;;;;5008285;28;20060;-64
2022/04/28 13:11:28;;;;;;;11.02;2.40;;;;;;;;;;5009913;28;20061;-63
2022/04/28 13:13:54;;;;;;;8.30;2.55;;;;;;;;;;5005951;28;20045;-63
2022/04/28 13:16:21;;;;;;;8.32;2.80;;;;;;;;;;5007282;28;20042;-63
2022/04/28 13:18:47;;;;;;;12.60;2.50;;;;;;;;;;5008653;28;20427;-63
2022/04/28 13:21:15;;;;;;;12.73;3.90;;;;;;;;;;5008898;28;20037;-64
2022/04/28 13:23:41;;;;;;;13.45;2.92;;;;;;;;;;5008190;28;20041;-64
2022/04/28 13:26:08;;;;;;;8.25;2.47;;;;;;;;;;5005821;28;20097;-64
2022/04/28 13:28:35;;;;;;;7.80;2.95;;;;;;;;;;5008651;28;20048;-64
2022/04/28 13:31:01;;;;;;;9.25;2.65;;;;;;;;;;5009079;28;20057;-65
2022/04/28 13:33:27;;;;;;;6.45;2.42;;;;;;;;;;5009306;28;20046;-65
2022/04/28 13:35:53;;;;;;;7.07;2.92;;;;;;;;;;5009570;28;20038;-64
2022/04/28 13:38:19;;;;;;;8.65;2.25;;;;;;;;;;5009649;28;20050;-64
2022/04/28 13:40:46;;;;;;;8.68;2.50;;;;;;;;;;5008542;28;20049;-63
2022/04/28 13:43:12;;;;;;;8.43;2.50;;;;;;;;;;5009357;28;20077;-65
2022/04/28 13:45:38;;;;;;;9.68;2.85;;;;;;;;;;5010548;28;20111;-64
2022/04/28 13:48:04;;;;;;;7.55;2.42;;;;;;;;;;5009740;28;20049;-63
2022/04/28 13:50:30;;;;;;;9.30;2.38;;;;;;;;;;5008507;28;20076;-64
2022/04/28 13:52:56;;;;;;;9.30;2.53;;;;;;;;;;5009861;28;20049;-64
2022/04/28 13:55:22;;;;;;;9.55;2.25;;;;;;;;;;5009481;28;20049;-64
2022/04/28 13:57:49;;;;;;;8.23;2.50;;;;;;;;;;5009681;28;20099;-64
2022/04/28 14:00:16;;;;;;;9.85;2.60;;;;;;;;;;5009766;28;20511;-62
2022/04/28 14:02:42;;;;;;;8.63;2.45;;;;;;;;;;5011691;28;20042;-61
2022/04/28 14:05:09;;;;;;;11.60;3.00;;;;;;;;;;5013740;28;20155;-61
2022/04/28 14:07:36;;;;;;;7.80;2.15;;;;;;;;;;5014558;28;20512;-61
2022/04/28 14:10:05;;;;;;;10.90;2.22;;;;;;;;;;5012836;28;20042;-62
2022/04/28 14:12:31;;;;;;;11.02;2.67;;;;;;;;;;5011291;28;20693;-62
2022/04/28 14:14:58;;;;;;;8.93;2.58;;;;;;;;;;5012280;28;20030;-61
2022/04/28 14:17:24;;;;;;;11.95;2.17;;;;;;;;;;5012594;28;20447;-61
2022/04/28 14:19:51;;;;;;;9.95;2.55;;;;;;;;;;5009875;28;20037;-59
2022/04/28 14:22:18;;;;;;;8.98;2.50;;;;;;;;;;5007298;28;20058;-61
2022/04/28 14:24:48;;;;;;;10.88;2.45;;;;;;;;;;5009723;28;20046;-61
2022/04/28 14:27:14;;;;;;;11.45;2.53;;;;;;;;;;5008986;28;20081;-61
2022/04/28 14:29:41;;;;;;;5.50;2.35;;;;;;;;;;5009879;28;20464;-61
2022/04/28 14:32:07;;;;;;;10.45;2.88;;;;;;;;;;5009866;28;20117;-61
2022/04/28 14:34:34;;;;;;;7.03;2.45;;;;;;;;;;5008940;28;20038;-61
2022/04/28 14:37:00;;;;;;;7.97;2.58;;;;;;;;;;5013203;28;20033;-60
2022/04/28 14:39:26;;;;;;;7.80;2.45;;;;;;;;;;5013090;28;20455;-60
2022/04/28 14:41:52;;;;;;;7.13;2.50;;;;;;;;;;5012115;28;20041;-61
2022/04/28 14:44:18;;;;;;;9.07;2.38;;;;;;;;;;5013084;28;20100;-61
2022/04/28 14:46:44;;;;;;;5.72;2.20;;;;;;;;;;5014197;28;20499;-61
2022/04/28 14:54:43;;;;;;;6.70;2.35;;;;;;;;;;5013759;28;20042;-61
2022/04/28 14:57:09;;;;;;;5.95;2.10;;;;;;;;;;5013327;28;20042;-63
2022/04/28 14:59:35;;;;;;;7.25;2.50;;;;;;;;;;5011881;28;20129;-63
2022/04/28 15:02:02;;;;;;;6.35;2.25;;;;;;;;;;5012674;28;20046;-63
2022/04/28 15:04:28;;;;;;;8.93;2.08;;;;;;;;;;5012400;28;20054;-62
2022/04/28 15:06:54;;;;;;;8.40;2.00;;;;;;;;;;5008782;28;20050;-63
2022/04/28 15:09:20;;;;;;;4.78;1.95;;;;;;;;;;5012872;28;20034;-62
2022/04/28 15:11:46;;;;;;;8.38;2.30;;;;;;;;;;5012421;28;20096;-62
2022/04/28 15:14:13;;;;;;;9.90;2.50;;;;;;;;;;5013665;28;20033;-62
2022/04/28 15:16:40;;;;;;;6.72;2.65;;;;;;;;;;5012804;28;20045;-62
2022/04/28 15:19:06;;;;;;;6.50;2.40;;;;;;;;;;5012383;28;20061;-62